Pearcy, Arkansas
Current Conditions -  °F | °C
As of 9:53 AM on Wednesday 28 Jan 2015 (Local Time) from KHOT Reporting Station
Clear Clear  
Wind Chill: 51°   Ceiling: Unl
Heat Index: 51°   Visibility: 10mi
Dew Point: 37°   Wind: 7mph
Humidity: 59%   Direction: 110°ESE
Pressure: 30.24"   Gusts: NA
Location:  34.43°N, 93.29°W
Report Text: KHOT 281553Z AUTO 11006KT 10SM CLR 11/03 A3024 RMK AO2 SLP238 T01060028
Loading
Personal Weather Stations






























Interactive Weather Map New forecast layout! Learn more

10-Day Weather Forecast

Advertisements
Track Severe Weather on mobile